Latest Coastal Weather Observations for Cape Wessel

IDD60701

Issued at 3:35 am CST Saturday 25 October 2014 (issued every 10 minutes, with the page automatically refreshed every 10 minutes)

About coastal observations | Map of coastal stations | Coastal observations for NT | Marine services | Other Formats
Station Details ID: 200786 Name: CAPE WESSEL Lat: -11.00 Lon: 136.76 Height: 18.0 m
Data from the previous 72 hours. | See also: Recent months for locations in Northern Territory
Date/Time
CST
Temp

°C
Wind Pressure Rain
since 9am
mm
Weather Cloud Vis
km
Sea
Height
m
Swell
Dir
 
Speed
knots
Gust
knots
hPa Trend Height
m
Period
s
Dir
25/03:30am 25.1 E 14 17 1012.8 - 0.0 - - - - - - -
25/03:00am 25.1 ESE 13 16 1012.7 - 0.0 - - - - - - -
25/02:30am 24.9 ESE 13 17 1013.1 - 0.0 - - - - - - -
25/02:00am 25.0 ESE 13 16 1013.2 - 0.0 - - - - - - -
25/01:30am 25.2 ESE 15 19 1013.4 - 0.0 - - - - - - -
25/01:00am 25.2 ESE 13 16 1013.6 - 0.0 - - - - - - -
25/12:30am 25.4 ESE 14 17 1013.8 - 0.0 - - - - - - -
25/12:00am 25.5 ESE 14 16 1013.9 - 0.0 - - - - - - -
 
Date/Time
CST
Temp

°C
Wind Pressure Rain
since 9am
mm
Weather Cloud Vis
km
Sea
Height
m
Swell
Dir
 
Speed
knots
Gust
knots
hPa Trend Height
m
Period
s
Dir
24/11:30pm 25.5 ESE 13 16 1014.3 - 0.0 - - - - - - -
24/11:00pm 25.5 E 12 16 1014.6 - 0.0 - - - - - - -
24/10:30pm 25.4 ESE 11 14 1014.5 - 0.0 - - - - - - -
24/10:00pm 25.6 ESE 13 15 1014.5 - 0.0 - - - - - - -
24/09:30pm 25.7 ESE 15 19 1014.1 - 0.0 - - - - - - -
24/09:00pm 25.7 E 15 20 1013.6 - 0.0 - - - - - - -
24/08:30pm 25.8 E 14 17 1013.4 - 0.0 - - - - - - -
24/08:00pm 25.8 E 13 17 1013.1 - 0.0 - - - - - - -
24/07:30pm 25.9 E 15 19 1012.5 - 0.0 - - - - - - -
24/07:00pm 25.9 E 14 17 1012.2 - 0.0 - - - - - - -
24/06:30pm 25.9 E 13 17 1011.8 - 0.0 - - - - - - -
24/06:00pm 26.5 E 14 19 1011.2 - 0.0 - - - - - - -
24/05:30pm 27.3 E 13 17 1011.3 - 0.0 - - - - - - -
24/05:00pm 28.2 E 14 17 1011.2 - 0.0 - - - - - - -
24/04:30pm 28.7 E 14 18 1011.1 - 0.0 - - - - - - -
24/04:00pm 29.7 E 15 18 1011.1 - 0.0 - - - - - - -
24/03:30pm 29.7 E 15 19 1011.4 - 0.0 - - - - - - -
24/03:00pm 29.8 E 13 17 1011.5 - 0.0 - - - - - - -
24/02:30pm 30.4 E 16 20 1011.6 - 0.0 - - - - - - -
24/02:00pm 30.5 E 15 19 1011.9 - 0.0 - - - - - - -
24/01:30pm 30.9 E 16 21 1012.2 - 0.0 - - - - - - -
24/01:00pm 31.1 E 16 21 1012.6 - 0.0 - - - - - - -
24/12:30pm 30.8 E 17 21 1013.2 - 0.0 - - - - - - -
24/12:00pm 31.6 E 17 21 1013.4 - 0.0 - - - - - - -
24/11:30am 31.5 E 17 21 1014.0 - 0.0 - - - - - - -
24/11:00am 31.0 ESE 17 21 1014.4 - 0.0 - - - - - - -
24/10:30am 31.1 ESE 17 22 1014.8 - 0.0 - - - - - - -
24/10:00am 30.3 E 18 22 1015.2 - 0.0 - - - - - - -
24/09:30am 29.0 E 15 19 1015.3 - 0.0 - - - - - - -
24/09:00am 29.8 E 15 19 1015.2 - 0.0 - - - - - - -
24/08:30am 29.6 E 14 18 1015.5 - 0.0 - - - - - - -
24/08:00am 28.6 E 14 17 1015.2 - 0.0 - - - - - - -
24/07:30am 27.6 ESE 15 18 1014.9 - 0.0 - - - - - - -
24/07:00am 26.6 ESE 13 16 1014.7 - 0.0 - - - - - - -
24/06:30am 25.9 E 13 17 1014.5 - 0.0 - - - - - - -
24/06:00am 25.3 E 13 16 1013.8 - 0.0 - - - - - - -
24/05:30am 25.1 E 12 15 1013.4 - 0.0 - - - - - - -
24/05:00am 25.1 E 12 14 1013.0 - 0.0 - - - - - - -
24/04:30am 25.0 E 11 15 1012.8 - 0.0 - - - - - - -
24/04:00am 25.0 E 12 15 1012.5 - 0.0 - - - - - - -
24/03:30am 25.0 E 12 15 1012.3 - 0.0 - - - - - - -
24/03:00am 25.1 ESE 13 15 1012.0 - 0.0 - - - - - - -
24/02:30am 25.2 ESE 12 15 1012.4 - 0.0 - - - - - - -
24/02:00am 25.2 ESE 13 16 1012.6 - 0.0 - - - - - - -
24/01:30am 25.4 ESE 13 16 1012.9 - 0.0 - - - - - - -
24/01:00am 25.4 ESE 13 16 1013.2 - 0.0 - - - - - - -
24/12:30am 25.5 ESE 11 14 1013.4 - 0.0 - - - - - - -
24/12:00am 25.5 ESE 13 15 1013.6 - 0.0 - - - - - - -
 
Date/Time
CST
Temp

°C
Wind Pressure Rain
since 9am
mm
Weather Cloud Vis
km
Sea
Height
m
Swell
Dir
 
Speed
knots
Gust
knots
hPa Trend Height
m
Period
s
Dir
23/11:30pm 25.7 ESE 13 15 1014.2 - 0.0 - - - - - - -
23/11:00pm 25.7 ESE 13 15 1014.3 - 0.0 - - - - - - -
23/10:30pm 25.8 ESE 11 13 1014.3 - 0.0 - - - - - - -
23/10:00pm 25.9 ESE 12 15 1014.2 - 0.0 - - - - - - -
23/09:30pm 26.0 ESE 13 16 1014.1 - 0.0 - - - - - - -
23/09:00pm 26.1 E 13 16 1013.4 - 0.0 - - - - - - -
23/08:30pm 26.2 E 12 15 1013.2 - 0.0 - - - - - - -
23/08:00pm 26.1 E 12 15 1012.9 - 0.0 - - - - - - -
23/07:30pm 26.4 ESE 12 15 1012.6 - 0.0 - - - - - - -
23/07:00pm 26.4 E 14 17 1012.3 - 0.0 - - - - - - -
23/06:30pm 26.4 E 13 16 1012.1 - 0.0 - - - - - - -
23/06:00pm 27.0 ESE 13 16 1011.7 - 0.0 - - - - - - -
23/05:30pm 27.8 E 13 16 1011.4 - 0.0 - - - - - - -
23/05:00pm 28.7 ESE 13 16 1011.2 - 0.0 - - - - - - -
23/04:30pm 28.9 E 13 17 1011.2 - 0.0 - - - - - - -
23/04:00pm 29.0 ESE 13 16 1011.3 - 0.0 - - - - - - -
23/03:30pm 29.7 ESE 14 16 1011.5 - 0.0 - - - - - - -
23/03:00pm 31.2 ESE 13 16 1011.4 - 0.0 - - - - - - -
23/02:30pm 30.2 E 13 16 1011.6 - 0.0 - - - - - - -
23/02:00pm 29.8 E 13 18 1011.9 - 0.0 - - - - - - -
23/01:30pm 31.9 E 13 16 1012.3 - 0.0 - - - - - - -
23/01:00pm 31.9 E 14 18 1012.7 - 0.0 - - - - - - -
23/12:30pm 32.7 E 14 18 1013.0 - 0.0 - - - - - - -
23/12:00pm 31.3 E 15 19 1013.2 - 0.0 - - - - - - -
23/11:30am 31.7 E 15 19 1013.6 - 0.0 - - - - - - -
23/11:00am 30.9 E 15 19 1013.9 - 0.0 - - - - - - -
23/10:00am 31.3 E 12 16 1014.2 - 0.0 - - - - - - -
23/09:30am 31.2 E 10 13 1014.4 - 0.0 - - - - - - -
23/09:00am 30.4 E 11 13 1014.3 - 0.0 - - - - - - -
23/08:30am 29.6 E 11 13 1014.7 - 0.0 - - - - - - -
23/08:00am 29.0 E 10 13 1014.6 - 0.0 - - - - - - -
23/07:30am 28.1 E 11 13 1014.3 - 0.0 - - - - - - -
23/07:00am 27.1 E 11 13 1013.9 - 0.0 - - - - - - -
23/06:30am 25.7 E 11 13 1013.7 - 0.0 - - - - - - -
23/06:00am 25.5 E 10 13 1013.4 - 0.0 - - - - - - -
23/05:30am 25.5 E 10 13 1013.2 - 0.0 - - - - - - -
23/05:00am 25.5 ESE 12 15 1012.9 - 0.0 - - - - - - -
23/04:30am 25.4 E 12 16 1012.6 - 0.0 - - - - - - -
23/04:00am 25.4 E 12 15 1012.5 - 0.0 - - - - - - -
23/03:30am 25.5 ESE 12 14 1012.5 - 0.0 - - - - - - -
23/03:00am 25.0 ESE 10 12 1012.3 - 0.0 - - - - - - -
23/02:30am 25.0 ESE 10 11 1012.6 - 0.0 - - - - - - -
23/02:00am 24.9 E 9 11 1012.9 - 0.0 - - - - - - -
23/01:30am 24.9 ESE 7 9 1013.0 - 0.0 - - - - - - -
23/01:00am 25.1 ESE 8 10 1013.2 - 0.0 - - - - - - -
23/12:30am 25.3 ESE 8 10 1013.6 - 0.0 - - - - - - -
23/12:00am 25.4 E 9 12 1013.6 - 0.0 - - - - - - -
 
Date/Time
CST
Temp

°C
Wind Pressure Rain
since 9am
mm
Weather Cloud Vis
km
Sea
Height
m
Swell
Dir
 
Speed
knots
Gust
knots
hPa Trend Height
m
Period
s
Dir
22/11:30pm 25.6 E 11 13 1014.0 - 0.0 - - - - - - -
22/11:00pm 25.7 E 11 13 1014.2 - 0.0 - - - - - - -
22/10:30pm 25.7 ESE 11 13 1014.3 - 0.0 - - - - - - -
22/10:00pm 25.9 ESE 11 14 1014.3 - 0.0 - - - - - - -
22/09:30pm 25.9 ESE 12 15 1013.9 - 0.0 - - - - - - -
22/09:00pm 26.0 E 13 16 1013.5 - 0.0 - - - - - - -
22/08:30pm 26.1 E 13 16 1013.3 - 0.0 - - - - - - -
22/08:00pm 26.2 E 14 17 1013.1 - 0.0 - - - - - - -
22/07:30pm 26.2 E 13 16 1012.8 - 0.0 - - - - - - -
22/07:00pm 26.3 E 14 17 1012.7 - 0.0 - - - - - - -
22/06:30pm 26.5 E 14 17 1012.4 - 0.0 - - - - - - -
22/06:00pm 26.9 E 13 16 1012.2 - 0.0 - - - - - - -
22/05:30pm 27.8 E 13 16 1012.2 - 0.0 - - - - - - -
22/05:00pm 28.7 E 14 16 1012.0 - 0.0 - - - - - - -
22/04:30pm 29.3 E 13 17 1011.9 - 0.0 - - - - - - -
22/04:00pm 28.2 E 14 17 1011.8 - 0.0 - - - - - - -
22/03:30pm 31.3 ESE 12 15 1011.9 - 0.0 - - - - - - -
22/03:00pm 31.4 ESE 12 15 1011.9 - 0.0 - - - - - - -
22/02:30pm 31.6 ESE 12 14 1012.3 - 0.0 - - - - - - -
22/02:00pm 31.8 ESE 11 14 1012.5 - 0.0 - - - - - - -
22/01:30pm 31.8 ESE 11 14 1012.9 - 0.0 - - - - - - -
22/01:00pm 31.3 ESE 11 14 1013.4 - 0.0 - - - - - - -
22/12:30pm 31.9 ESE 12 14 1013.9 - 0.0 - - - - - - -
22/12:00pm 31.6 ESE 12 15 1014.1 - 0.0 - - - - - - -
22/11:30am 31.5 ESE 11 14 1014.6 - 0.0 - - - - - - -
22/11:00am 30.8 ESE 11 13 1014.8 - 0.0 - - - - - - -
22/10:30am 31.0 E 11 13 1015.1 - 0.0 - - - - - - -
22/10:00am 30.6 E 11 14 1015.4 - 0.0 - - - - - - -
22/09:30am 30.8 E 10 13 1015.6 - 0.0 - - - - - - -
22/09:00am 30.0 E 9 11 1015.5 - 0.0 - - - - - - -
22/08:30am 29.4 ESE 9 11 1015.6 - 0.0 - - - - - - -
22/08:00am 28.9 E 9 11 1015.4 - 0.0 - - - - - - -
22/07:30am 28.1 E 9 11 1015.0 - 0.0 - - - - - - -
22/07:00am 26.9 E 9 11 1014.6 - 0.0 - - - - - - -
22/06:30am 25.6 E 8 9 1014.3 - 0.0 - - - - - - -
22/06:00am 25.0 E 8 10 1013.7 - 0.0 - - - - - - -
22/05:30am 25.1 ESE 10 11 1013.6 - 0.0 - - - - - - -
22/05:00am 25.1 ESE 10 13 1013.4 - 0.0 - - - - - - -
22/04:30am 25.2 ESE 11 14 1013.2 - 0.0 - - - - - - -
22/04:00am 25.1 ESE 12 14 1013.1 - 0.0 - - - - - - -

Other Formats:

Comma delimited format used in spreadsheet applications
http://www.bom.gov.au/fwo/IDD60701/IDD60701.94147.axf

JavaScript Object Notation format (JSON) in row-major order
http://www.bom.gov.au/fwo/IDD60701/IDD60701.94147.json